Accueil
METAR-TAF:

METAR-TAF

Aéroports :

Cranfield, Angleterre

latitude: 52-04N, longitude: 000-37W, altitude: 111 m

Observation

Le bulletin a été fait il y a 15 minutes, à 13:50 UTC
Vent 14 kt de sud-ouest, variant entre sud/sud-ouest et ouest
Température 22°C
Humidité 60%
Pression 1023 hPa
Visibilité 10 km ou plus
Quelques nuages à une hauteur de 3400 ft

METAR: EGTC 221350Z 23014KT 200V280 9999 FEW034 22/14 Q1023

Heure: 15:05 (14:05 UTC)

Prévision

Le bulletin a été fait il y a 3 heures et 5 minutes, à 11:00 UTC
Prévision valable du 22 à 12 UTC au 22 à 18 UTC
Vent 13 kt de sud-ouest
Visibilité 10 km ou plus
Quelques nuages à une hauteur de 4000 ft

TAF: EGTC 221100Z 2212/2218 22013KT 9999 FEW040

Observations et prévisions météorologiques de plus de 4000 aéroports (messages METAR et TAF).

Les stations disponibles sont représentées par des disques jaunes et rouges sur la carte.

Passer la souris dessus pour voir le nom de la station.

Cliquer dessus pour voir les observations et prévisions météorologiques.

Pour changer de carte: cliquez sur les boutons verts avec une croix noire pour zoomer, sur le bouton vert avec un tiret pour effectuer un zoom arrière, ou sur les flèches vertes pour les cartes adjacentes.


METAR-TAF: